Time;durP1;ratioP1;P1;durP2;ratioP2;P2;SDS_P1;SDS_P2;PMS_P1;PMS_P2;Temp;Humidity;BMP_temperature;BMP_pressure;BME280_temperature;BME280_humidity;BME280_pressure;Samples;Min_cycle;Max_cycle;Signal;HPM_P1;HPM_P2
2022/12/20 00:01:09;;;;;;;28.08;14.52;;;4.00;99.90;;;;;;5109140;28;20034;-54
2022/12/20 00:03:35;;;;;;;26.52;12.88;;;4.00;99.90;;;;;;5112022;28;20198;-54
2022/12/20 00:06:00;;;;;;;24.27;13.27;;;4.00;99.90;;;;;;5093234;28;20031;-52
2022/12/20 00:08:26;;;;;;;27.88;13.68;;;4.00;99.90;;;;;;5111926;28;20499;-57
2022/12/20 00:10:51;;;;;;;24.42;13.98;;;4.00;99.90;;;;;;5095306;28;20100;-55
2022/12/20 00:13:17;;;;;;;24.23;13.45;;;4.00;99.90;;;;;;5111829;28;20051;-53
2022/12/20 00:15:42;;;;;;;29.35;14.60;;;4.00;99.90;;;;;;5092702;28;20142;-53
2022/12/20 00:18:08;;;;;;;26.77;13.57;;;4.00;99.90;;;;;;5111745;28;20039;-55
2022/12/20 00:20:34;;;;;;;26.52;12.93;;;4.10;99.90;;;;;;5092660;28;20691;-58
2022/12/20 00:23:00;;;;;;;28.00;13.05;;;4.00;99.90;;;;;;5110796;28;20115;-57
2022/12/20 00:25:25;;;;;;;28.40;15.25;;;4.10;99.90;;;;;;5091241;28;20118;-55
2022/12/20 00:27:51;;;;;;;27.48;13.75;;;4.10;99.90;;;;;;5111638;28;20028;-60
2022/12/20 00:30:17;;;;;;;26.20;13.25;;;4.10;99.90;;;;;;5090098;28;20537;-51
2022/12/20 00:32:44;;;;;;;23.42;12.27;;;4.10;99.90;;;;;;5111582;28;20399;-49
2022/12/20 00:35:10;;;;;;;24.48;13.32;;;4.10;99.90;;;;;;5091347;28;20043;-49
2022/12/20 00:37:36;;;;;;;30.52;13.15;;;4.10;99.90;;;;;;5108980;28;20020;-50
2022/12/20 00:40:04;;;;;;;26.90;13.35;;;4.10;99.90;;;;;;5091438;28;20025;-52
2022/12/20 00:42:29;;;;;;;20.85;11.93;;;4.10;99.90;;;;;;5089701;28;20361;-51
2022/12/20 00:44:55;;;;;;;22.27;12.45;;;4.10;99.90;;;;;;5110424;28;20096;-56
2022/12/20 00:47:20;;;;;;;24.27;12.85;;;4.10;99.90;;;;;;5089576;28;20088;-48
2022/12/20 00:49:46;;;;;;;24.90;13.63;;;4.20;99.90;;;;;;5110210;28;20030;-56
2022/12/20 00:52:11;;;;;;;24.45;13.05;;;4.20;99.90;;;;;;5089258;28;20027;-53
2022/12/20 00:54:36;;;;;;;23.02;11.93;;;4.20;99.90;;;;;;5110026;28;20035;-50
2022/12/20 00:57:02;;;;;;;24.52;13.15;;;4.20;99.90;;;;;;5089035;28;20028;-52
2022/12/20 00:59:27;;;;;;;24.35;13.68;;;4.20;99.90;;;;;;5109089;28;20032;-49
2022/12/20 01:01:53;;;;;;;24.30;13.05;;;4.20;99.90;;;;;;5088936;28;20093;-51
2022/12/20 01:04:19;;;;;;;25.45;12.63;;;4.20;99.90;;;;;;5109855;28;20039;-55
2022/12/20 01:06:44;;;;;;;20.42;10.15;;;4.20;99.90;;;;;;5085022;28;20665;-55
2022/12/20 01:09:11;;;;;;;21.98;11.18;;;4.20;99.90;;;;;;5109752;28;20395;-51
2022/12/20 01:11:37;;;;;;;27.27;12.38;;;4.30;99.90;;;;;;5088302;28;20028;-50
2022/12/20 01:14:10;;;;;;;28.30;14.10;;;4.20;99.90;;;;;;5107896;28;20479;-53
2022/12/20 01:16:42;;;;;;;22.80;11.98;;;4.30;99.90;;;;;;5079870;28;20032;-54
2022/12/20 01:19:10;;;;;;;24.00;12.88;;;4.30;99.90;;;;;;5110149;28;20020;-54
2022/12/20 01:21:38;;;;;;;22.23;11.65;;;4.30;99.90;;;;;;5088022;28;20028;-53
2022/12/20 01:24:04;;;;;;;24.25;12.32;;;4.30;99.90;;;;;;5109691;28;20047;-53
2022/12/20 01:26:29;;;;;;;22.13;12.43;;;4.30;99.90;;;;;;5099196;28;20066;-55
2022/12/20 01:28:58;;;;;;;21.98;12.25;;;4.30;99.90;;;;;;5090186;28;20056;-54
2022/12/20 01:31:26;;;;;;;22.10;10.65;;;4.30;99.90;;;;;;5107737;28;20051;-53
2022/12/20 01:33:51;;;;;;;23.00;11.57;;;4.30;99.90;;;;;;5089974;28;20085;-52
2022/12/20 01:36:20;;;;;;;18.65;10.10;;;4.30;99.90;;;;;;5107277;28;20031;-55
2022/12/20 01:38:45;;;;;;;19.10;10.50;;;4.30;99.90;;;;;;5089713;28;20020;-54
2022/12/20 01:41:20;;;;;;;20.33;11.20;;;4.30;99.90;;;;;;5107071;28;20487;-53
2022/12/20 01:44:02;;;;;;;18.52;10.73;;;4.30;99.90;;;;;;5069180;28;20503;-50
2022/12/20 01:46:35;;;;;;;20.35;10.40;;;4.30;99.90;;;;;;5089447;28;20112;-49
2022/12/20 01:49:10;;;;;;;24.45;12.38;;;4.20;99.90;;;;;;5089753;28;20063;-52
2022/12/20 01:51:43;;;;;;;21.75;11.98;;;4.20;99.90;;;;;;5086399;28;20028;-49
2022/12/20 01:54:23;;;;;;;23.38;13.07;;;4.20;99.90;;;;;;5068938;28;20021;-50
2022/12/20 01:56:55;;;;;;;24.30;12.02;;;4.30;99.90;;;;;;5068961;28;20616;-48
2022/12/20 01:59:21;;;;;;;22.63;10.82;;;4.20;99.90;;;;;;5109482;28;20059;-51
2022/12/20 02:01:46;;;;;;;20.77;11.43;;;4.20;99.90;;;;;;5088826;28;20060;-50
2022/12/20 02:04:12;;;;;;;22.30;11.82;;;4.20;99.90;;;;;;5109428;28;20028;-48
2022/12/20 02:06:37;;;;;;;25.77;12.57;;;4.20;99.90;;;;;;5079979;28;20383;-50
2022/12/20 02:09:04;;;;;;;24.45;12.23;;;4.20;99.90;;;;;;5109338;28;20027;-53
2022/12/20 02:11:47;;;;;;;23.30;11.57;;;4.20;99.90;;;;;;5089213;28;20039;-53
2022/12/20 02:14:59;;;;;;;22.40;12.05;;;4.20;99.90;;;;;;5088881;28;20031;-47
2022/12/20 02:17:33;;;;;;;21.92;11.45;;;4.20;99.90;;;;;;5080379;28;20026;-48
2022/12/20 02:20:18;;;;;;;19.65;11.75;;;4.20;99.90;;;;;;5109147;28;20019;-48
2022/12/20 02:23:17;;;;;;;21.10;11.82;;;4.20;99.90;;;;;;5085234;28;20035;-48
2022/12/20 02:25:51;;;;;;;19.40;11.07;;;4.30;99.90;;;;;;5068262;28;20040;-49
2022/12/20 02:28:54;;;;;;;24.95;12.48;;;4.30;99.90;;;;;;5092538;28;20377;-53
2022/12/20 02:31:31;;;;;;;27.45;12.43;;;4.30;99.90;;;;;;5108029;28;20662;-50
2022/12/20 02:33:59;;;;;;;20.35;11.80;;;4.30;99.90;;;;;;5086336;28;20119;-48
2022/12/20 02:36:24;;;;;;;20.42;12.13;;;4.30;99.90;;;;;;5106512;28;20024;-51
2022/12/20 02:38:50;;;;;;;22.27;11.75;;;4.30;99.90;;;;;;5089096;28;20028;-52
2022/12/20 02:41:28;;;;;;;20.55;11.10;;;4.30;99.90;;;;;;5106175;28;20087;-49
2022/12/20 02:46:54;;;;;;;21.08;10.95;;;4.40;99.90;;;;;;5094357;28;20092;-53
2022/12/20 02:49:23;;;;;;;20.80;9.75;;;4.40;99.90;;;;;;5087597;28;20398;-53
2022/12/20 02:51:52;;;;;;;21.13;10.90;;;4.50;99.90;;;;;;5093465;28;20032;-51
2022/12/20 02:54:18;;;;;;;20.90;11.50;;;4.50;99.90;;;;;;5107325;28;20034;-49
2022/12/20 02:56:51;;;;;;;18.10;9.75;;;4.50;99.90;;;;;;5087020;28;20067;-51
2022/12/20 02:59:21;;;;;;;19.05;9.38;;;4.60;99.90;;;;;;5068503;28;20476;-49
2022/12/20 03:01:53;;;;;;;22.90;11.43;;;4.60;99.90;;;;;;5093639;28;20094;-52
2022/12/20 03:04:25;;;;;;;19.75;10.93;;;4.60;99.90;;;;;;5068452;28;20031;-63
2022/12/20 03:07:06;;;;;;;19.00;9.63;;;4.60;99.90;;;;;;5077071;28;20024;-63
2022/12/20 03:09:35;;;;;;;20.27;9.75;;;4.60;99.90;;;;;;5108189;28;20039;-62
2022/12/20 03:12:01;;;;;;;18.63;9.30;;;4.70;99.90;;;;;;5086556;28;20557;-63
2022/12/20 03:14:27;;;;;;;18.17;9.80;;;4.70;99.90;;;;;;5108126;28;20032;-51
2022/12/20 03:16:52;;;;;;;18.67;9.85;;;4.70;99.90;;;;;;5085761;28;20026;-52
2022/12/20 03:19:18;;;;;;;20.50;10.13;;;4.60;99.90;;;;;;5106580;28;20073;-50
2022/12/20 03:21:44;;;;;;;18.48;10.05;;;4.60;99.90;;;;;;5086791;28;20361;-53
2022/12/20 03:24:10;;;;;;;19.63;10.38;;;4.60;99.90;;;;;;5106835;28;20027;-50
2022/12/20 03:26:36;;;;;;;16.90;9.65;;;4.60;99.90;;;;;;5097839;28;20058;-48
2022/12/20 03:29:02;;;;;;;17.52;9.52;;;4.50;99.90;;;;;;5088648;28;20036;-49
2022/12/20 03:31:28;;;;;;;18.80;9.80;;;4.40;99.90;;;;;;5105957;28;20032;-52
2022/12/20 03:33:54;;;;;;;21.98;10.65;;;4.40;99.90;;;;;;5088694;28;20028;-50
2022/12/20 03:36:22;;;;;;;20.10;9.82;;;4.40;99.90;;;;;;5105727;28;20494;-51
2022/12/20 03:38:48;;;;;;;22.10;9.57;;;4.40;99.90;;;;;;5087994;28;20028;-50
2022/12/20 03:41:14;;;;;;;18.00;10.27;;;4.40;99.90;;;;;;5105652;28;20564;-51
2022/12/20 03:43:39;;;;;;;18.58;9.32;;;4.50;99.90;;;;;;5088423;28;20046;-52
2022/12/20 03:46:05;;;;;;;23.85;10.75;;;4.50;99.90;;;;;;5105514;28;20032;-47
2022/12/20 03:48:30;;;;;;;17.50;10.15;;;4.50;99.90;;;;;;5108570;28;20040;-53
2022/12/20 03:50:56;;;;;;;17.73;9.63;;;4.50;99.90;;;;;;5092471;28;20028;-50
2022/12/20 03:53:21;;;;;;;19.05;10.07;;;4.50;99.90;;;;;;5108598;28;20371;-48
2022/12/20 03:55:47;;;;;;;19.75;10.63;;;4.50;99.90;;;;;;5091215;28;20296;-48
2022/12/20 03:58:12;;;;;;;19.70;10.20;;;4.50;99.90;;;;;;5110813;28;20578;-52
2022/12/20 04:00:38;;;;;;;20.17;9.90;;;4.60;99.90;;;;;;5093465;28;20031;-50
2022/12/20 04:03:03;;;;;;;18.40;9.15;;;4.60;99.90;;;;;;5111656;28;20050;-51
2022/12/20 04:05:29;;;;;;;19.23;10.07;;;4.60;99.90;;;;;;5089056;28;20031;-51
2022/12/20 04:07:54;;;;;;;21.13;10.07;;;4.70;99.90;;;;;;5111142;28;20387;-52
2022/12/20 04:10:20;;;;;;;18.55;8.73;;;4.70;99.90;;;;;;5090582;28;20056;-51
2022/12/20 04:12:45;;;;;;;23.52;11.05;;;4.70;99.90;;;;;;5111906;28;20027;-52
2022/12/20 04:15:11;;;;;;;18.98;10.10;;;4.70;99.90;;;;;;5090547;28;20032;-50
2022/12/20 04:17:36;;;;;;;18.13;9.50;;;4.80;99.90;;;;;;5111718;28;20030;-49
2022/12/20 04:20:17;;;;;;;21.20;9.90;;;4.80;99.90;;;;;;5091630;28;20038;-48
2022/12/20 04:22:47;;;;;;;19.88;9.82;;;4.80;99.90;;;;;;5070984;28;20140;-53
2022/12/20 04:25:13;;;;;;;19.52;10.35;;;4.80;99.90;;;;;;5099639;28;20040;-52
2022/12/20 04:27:39;;;;;;;61.28;23.10;;;4.70;99.90;;;;;;5111522;28;20415;-55
2022/12/20 04:30:05;;;;;;;32.78;16.05;;;4.70;99.90;;;;;;5091641;28;20031;-50
2022/12/20 04:32:31;;;;;;;23.55;12.70;;;4.70;99.90;;;;;;5109653;28;20484;-51
2022/12/20 04:34:56;;;;;;;20.25;11.85;;;4.80;99.90;;;;;;5091490;28;20036;-49
2022/12/20 04:37:21;;;;;;;18.75;10.23;;;4.80;99.90;;;;;;5089479;28;20028;-49
2022/12/20 04:39:47;;;;;;;18.73;10.38;;;4.80;99.90;;;;;;5110595;28;20519;-52
2022/12/20 04:42:12;;;;;;;19.70;10.68;;;4.80;99.90;;;;;;5089565;28;20571;-49
2022/12/20 04:44:38;;;;;;;20.95;10.77;;;4.80;99.90;;;;;;5110447;28;20036;-50
2022/12/20 04:47:03;;;;;;;21.15;10.55;;;4.80;99.90;;;;;;5089489;28;20053;-47
2022/12/20 04:49:29;;;;;;;17.77;9.07;;;4.90;99.90;;;;;;5109083;28;20491;-47
2022/12/20 04:53:46;;;;;;;18.60;10.35;;;4.80;99.90;;;;;;5089441;28;20040;-51
2022/12/20 04:54:40;;;;;;;16.40;8.90;;;4.70;99.90;;;;;;5083883;28;20032;-52
2022/12/20 04:57:05;;;;;;;22.63;11.10;;;4.70;99.90;;;;;;5090361;28;20039;-49
2022/12/20 04:59:31;;;;;;;19.60;10.27;;;4.60;99.90;;;;;;5110098;28;20030;-50
2022/12/20 05:01:56;;;;;;;17.30;9.43;;;4.60;99.90;;;;;;5089111;28;20066;-50
2022/12/20 05:04:22;;;;;;;19.27;10.13;;;4.50;99.90;;;;;;5109798;28;20063;-52
2022/12/20 05:06:47;;;;;;;20.23;9.82;;;4.40;99.90;;;;;;5082466;28;20028;-55
2022/12/20 05:09:13;;;;;;;18.17;9.70;;;4.30;99.90;;;;;;5091864;28;20036;-52
2022/12/20 05:11:38;;;;;;;19.13;9.57;;;4.20;99.90;;;;;;5095020;28;20032;-49
2022/12/20 05:14:03;;;;;;;15.35;8.32;;;4.10;99.90;;;;;;5109848;28;20078;-49
2022/12/20 05:16:29;;;;;;;20.63;9.98;;;4.00;99.90;;;;;;5089019;28;20098;-47
2022/12/20 05:18:54;;;;;;;24.25;9.90;;;3.90;99.90;;;;;;5109715;28;20531;-47
2022/12/20 05:26:48;;;;;;;23.23;10.40;;;3.70;99.90;;;;;;5096662;28;20161;-49
2022/12/20 05:29:15;;;;;;;20.13;9.52;;;3.60;99.90;;;;;;5089154;28;20568;-55
2022/12/20 05:31:41;;;;;;;18.90;9.93;;;3.50;99.90;;;;;;5094468;28;20039;-52
2022/12/20 05:34:06;;;;;;;21.75;10.07;;;3.50;99.90;;;;;;5109549;28;20035;-51
2022/12/20 05:36:32;;;;;;;19.02;9.95;;;3.40;99.90;;;;;;5088456;28;20495;-52
2022/12/20 05:38:57;;;;;;;18.55;9.52;;;3.40;99.90;;;;;;5109382;28;20085;-49
2022/12/20 05:41:23;;;;;;;16.88;9.27;;;3.30;99.90;;;;;;5098945;28;20031;-50
2022/12/20 05:43:48;;;;;;;20.05;10.68;;;3.20;99.90;;;;;;5090101;28;20038;-48
2022/12/20 05:46:14;;;;;;;20.20;9.52;;;3.20;99.90;;;;;;5107360;28;20118;-52
2022/12/20 05:48:39;;;;;;;17.92;8.35;;;3.10;99.90;;;;;;5090144;28;20039;-51
2022/12/20 05:51:05;;;;;;;23.27;10.75;;;3.10;99.90;;;;;;5107215;28;20027;-53
2022/12/20 05:53:30;;;;;;;21.45;9.73;;;3.10;99.90;;;;;;5089652;28;20028;-50
2022/12/20 05:55:56;;;;;;;18.30;9.23;;;3.10;99.90;;;;;;5106887;28;20080;-50
2022/12/20 05:58:21;;;;;;;20.13;9.68;;;3.20;99.90;;;;;;5109991;28;20034;-48
2022/12/20 06:00:47;;;;;;;16.38;8.45;;;3.20;99.90;;;;;;5093664;28;20487;-50
2022/12/20 06:03:14;;;;;;;22.73;10.05;;;3.20;99.90;;;;;;5109588;28;20488;-53
2022/12/20 06:05:40;;;;;;;19.92;9.57;;;3.30;99.90;;;;;;5090716;28;20020;-50
2022/12/20 06:08:06;;;;;;;16.88;8.82;;;3.30;99.90;;;;;;5106693;28;20579;-53
2022/12/20 06:10:33;;;;;;;21.90;9.45;;;3.40;99.90;;;;;;5090842;28;20068;-47
2022/12/20 06:13:00;;;;;;;23.35;11.32;;;3.50;99.90;;;;;;5109430;28;20150;-53
2022/12/20 06:15:26;;;;;;;21.25;10.45;;;3.50;99.90;;;;;;5090198;28;20580;-51
2022/12/20 06:17:51;;;;;;;21.58;9.63;;;3.50;99.90;;;;;;5109468;28;20047;-50
2022/12/20 06:20:17;;;;;;;21.38;10.40;;;3.50;99.90;;;;;;5088437;28;20028;-52
2022/12/20 06:22:42;;;;;;;18.85;9.20;;;3.50;99.90;;;;;;5109183;28;20032;-54
2022/12/20 06:25:08;;;;;;;19.80;9.48;;;3.60;99.90;;;;;;5094742;28;20048;-48
2022/12/20 06:27:35;;;;;;;19.70;10.23;;;3.60;99.90;;;;;;5109056;28;20019;-48
2022/12/20 06:30:01;;;;;;;20.08;8.75;;;3.60;99.90;;;;;;5089102;28;20058;-53
2022/12/20 06:32:26;;;;;;;18.17;8.98;;;3.70;99.90;;;;;;5105372;28;20491;-59
2022/12/20 06:34:52;;;;;;;20.45;9.93;;;3.70;99.90;;;;;;5089142;28;20024;-60
2022/12/20 06:37:17;;;;;;;20.92;9.35;;;3.80;99.90;;;;;;5083489;28;20042;-60
2022/12/20 06:39:42;;;;;;;17.85;8.80;;;3.80;99.90;;;;;;5086886;28;20028;-66
2022/12/20 06:42:08;;;;;;;15.15;8.38;;;3.90;99.90;;;;;;5086150;28;20079;-62
2022/12/20 06:44:33;;;;;;;17.42;8.68;;;4.00;99.90;;;;;;5107700;28;20031;-61
2022/12/20 06:47:00;;;;;;;20.08;9.30;;;4.00;99.90;;;;;;5085161;28;20113;-70
2022/12/20 06:49:26;;;;;;;19.92;9.65;;;4.10;99.90;;;;;;5103261;28;20063;-67
2022/12/20 06:51:51;;;;;;;16.92;8.82;;;4.20;99.90;;;;;;5087110;28;20449;-67
2022/12/20 06:54:17;;;;;;;18.73;9.20;;;4.20;99.90;;;;;;5105192;28;20028;-67
2022/12/20 06:56:42;;;;;;;15.57;8.43;;;4.30;99.90;;;;;;5087722;28;20565;-66
2022/12/20 06:59:08;;;;;;;17.85;8.80;;;4.30;99.90;;;;;;5086232;28;20024;-69
2022/12/20 07:01:33;;;;;;;16.13;8.65;;;4.40;99.90;;;;;;5106330;28;20122;-67
2022/12/20 07:03:59;;;;;;;21.73;9.05;;;4.40;99.90;;;;;;5085890;28;20085;-68
2022/12/20 07:06:25;;;;;;;19.63;9.50;;;4.40;99.90;;;;;;5103266;28;20259;-66
2022/12/20 07:08:51;;;;;;;15.52;7.82;;;4.40;99.90;;;;;;5085656;28;20500;-67
2022/12/20 07:11:17;;;;;;;21.00;9.80;;;4.50;99.90;;;;;;5106650;28;20042;-69
2022/12/20 07:13:42;;;;;;;18.08;9.55;;;4.50;99.90;;;;;;5085434;28;20028;-68
2022/12/20 07:16:08;;;;;;;17.90;8.57;;;4.50;99.90;;;;;;5106752;28;20047;-67
2022/12/20 07:18:34;;;;;;;17.70;8.55;;;4.50;99.90;;;;;;5084300;28;20115;-66
2022/12/20 07:21:01;;;;;;;20.30;8.57;;;4.60;99.90;;;;;;5106652;28;20174;-66
2022/12/20 07:23:27;;;;;;;15.40;8.30;;;4.60;99.90;;;;;;5083906;28;20039;-66
2022/12/20 07:25:56;;;;;;;18.02;8.15;;;4.70;99.90;;;;;;5106320;28;20043;-66
2022/12/20 07:28:23;;;;;;;23.50;10.18;;;4.70;99.90;;;;;;5085620;28;20032;-66
2022/12/20 07:30:49;;;;;;;20.13;9.80;;;4.70;99.90;;;;;;5107321;28;20043;-68
2022/12/20 07:33:14;;;;;;;15.88;9.13;;;4.80;99.90;;;;;;5100683;28;20024;-67
2022/12/20 07:35:40;;;;;;;18.90;9.77;;;4.80;99.90;;;;;;5091159;28;20043;-67
2022/12/20 07:38:05;;;;;;;18.95;9.20;;;4.80;99.90;;;;;;5108200;28;20106;-67
2022/12/20 07:40:31;;;;;;;21.50;9.73;;;4.80;99.90;;;;;;5089816;28;20492;-66
2022/12/20 07:42:56;;;;;;;19.27;9.88;;;4.90;99.90;;;;;;5108144;28;20039;-66
2022/12/20 07:45:22;;;;;;;16.60;7.55;;;4.90;99.90;;;;;;5091158;28;20109;-66
2022/12/20 07:47:47;;;;;;;18.05;9.60;;;5.00;99.90;;;;;;5108108;28;20088;-67
2022/12/20 07:50:13;;;;;;;17.70;9.27;;;5.00;99.90;;;;;;5110561;28;20730;-68
2022/12/20 07:52:42;;;;;;;17.77;9.10;;;5.00;99.90;;;;;;5094869;28;20020;-68
2022/12/20 07:55:11;;;;;;;16.10;9.93;;;5.00;99.90;;;;;;5110852;28;20064;-66
2022/12/20 07:57:41;;;;;;;15.43;9.05;;;5.10;99.90;;;;;;5094090;28;20081;-67
2022/12/20 08:00:08;;;;;;;17.05;8.45;;;5.10;99.90;;;;;;5110797;28;20029;-67
2022/12/20 08:02:38;;;;;;;21.48;8.85;;;5.10;99.90;;;;;;5093475;28;20050;-67
2022/12/20 08:05:07;;;;;;;15.48;8.30;;;5.10;99.90;;;;;;5098841;28;20395;-65
2022/12/20 08:07:33;;;;;;;19.38;9.38;;;5.10;99.90;;;;;;5093244;28;20051;-65
2022/12/20 08:10:00;;;;;;;16.98;8.77;;;5.20;99.90;;;;;;5110553;28;20028;-68
2022/12/20 08:12:28;;;;;;;17.75;9.00;;;5.20;99.90;;;;;;5090690;28;20030;-67
2022/12/20 08:14:55;;;;;;;15.68;9.05;;;5.30;99.90;;;;;;5089844;28;20093;-69
2022/12/20 08:17:21;;;;;;;18.48;9.20;;;5.30;99.90;;;;;;5091179;28;20019;-67
2022/12/20 08:19:47;;;;;;;16.92;8.65;;;5.30;99.90;;;;;;5110381;28;20055;-67
2022/12/20 08:22:13;;;;;;;20.42;9.45;;;5.30;99.90;;;;;;5090435;28;20054;-68
2022/12/20 08:24:39;;;;;;;16.02;8.18;;;5.40;99.90;;;;;;5105058;28;20481;-69
2022/12/20 08:27:05;;;;;;;14.40;8.27;;;5.40;99.90;;;;;;5088808;28;20020;-68
2022/12/20 08:29:30;;;;;;;13.02;7.20;;;5.40;99.90;;;;;;5110029;28;20479;-66
2022/12/20 08:31:55;;;;;;;19.23;9.95;;;5.50;99.90;;;;;;5088298;28;20059;-66
2022/12/20 08:34:21;;;;;;;16.17;8.32;;;5.50;99.90;;;;;;5110081;28;20066;-67
2022/12/20 08:36:47;;;;;;;15.57;8.55;;;5.60;99.90;;;;;;5089855;28;20031;-66
2022/12/20 08:39:12;;;;;;;14.98;8.75;;;5.70;99.90;;;;;;5087922;28;20429;-66
2022/12/20 08:41:38;;;;;;;19.95;10.73;;;5.70;99.90;;;;;;5107530;28;20345;-66
2022/12/20 08:44:05;;;;;;;17.73;9.13;;;5.80;99.90;;;;;;5087472;28;20031;-66
2022/12/20 08:46:30;;;;;;;17.52;8.98;;;5.80;99.90;;;;;;5109121;28;20027;-66
2022/12/20 08:48:55;;;;;;;18.33;8.75;;;5.90;99.90;;;;;;5088087;28;20089;-66
2022/12/20 08:51:21;;;;;;;20.63;9.88;;;6.00;99.90;;;;;;5108579;28;20379;-66
2022/12/20 08:53:46;;;;;;;20.00;9.38;;;6.00;99.90;;;;;;5087936;28;20236;-66
2022/12/20 08:56:14;;;;;;;15.07;8.20;;;6.00;99.90;;;;;;5108735;28;20122;-66
2022/12/20 08:58:41;;;;;;;16.77;9.25;;;6.10;99.90;;;;;;5087449;28;20047;-65
2022/12/20 09:01:12;;;;;;;15.85;8.65;;;6.10;99.90;;;;;;5108908;28;20039;-66
2022/12/20 09:03:39;;;;;;;16.40;9.18;;;6.20;99.90;;;;;;5081161;28;20036;-66
2022/12/20 09:06:06;;;;;;;14.75;8.10;;;6.20;99.90;;;;;;5100938;28;20050;-67
2022/12/20 09:08:33;;;;;;;18.63;9.75;;;6.30;99.90;;;;;;5087236;28;20244;-67
2022/12/20 09:11:23;;;;;;;16.52;9.18;;;6.30;99.90;;;;;;5108660;28;20036;-66
2022/12/20 09:13:50;;;;;;;15.57;9.10;;;6.30;99.90;;;;;;5077383;28;20390;-67
2022/12/20 09:16:18;;;;;;;15.27;7.82;;;6.30;99.90;;;;;;5106976;28;20024;-67
2022/12/20 09:18:48;;;;;;;14.18;8.50;;;6.40;99.90;;;;;;5085620;28;20031;-66
2022/12/20 09:21:14;;;;;;;14.88;8.57;;;6.40;99.90;;;;;;5108893;28;20049;-66
2022/12/20 09:23:39;;;;;;;18.10;9.75;;;6.50;99.90;;;;;;5087139;28;20032;-66
2022/12/20 09:26:09;;;;;;;17.75;9.93;;;6.50;99.90;;;;;;5108189;28;20075;-66
2022/12/20 09:28:34;;;;;;;15.65;8.88;;;6.60;99.90;;;;;;5086403;28;20020;-66
2022/12/20 09:31:01;;;;;;;16.13;8.85;;;6.60;99.90;;;;;;5108045;28;20128;-66
2022/12/20 09:33:29;;;;;;;16.88;8.95;;;6.70;99.90;;;;;;5085901;28;20028;-66
2022/12/20 09:35:55;;;;;;;16.08;8.93;;;6.70;99.90;;;;;;5106288;28;20023;-66
2022/12/20 09:38:21;;;;;;;15.70;9.25;;;6.80;99.90;;;;;;5108844;28;20439;-66
2022/12/20 09:40:54;;;;;;;19.00;9.68;;;6.80;99.90;;;;;;5091462;28;20023;-66
2022/12/20 09:43:21;;;;;;;20.92;10.15;;;6.80;99.90;;;;;;5108832;28;20028;-67
2022/12/20 09:45:50;;;;;;;15.48;8.57;;;6.90;99.90;;;;;;5091506;28;20023;-66
2022/12/20 09:48:22;;;;;;;17.20;8.40;;;6.90;99.90;;;;;;5108841;28;20026;-67
2022/12/20 09:50:51;;;;;;;17.05;9.85;;;7.00;99.90;;;;;;5091002;28;20034;-66
2022/12/20 09:53:47;;;;;;;18.08;9.82;;;7.10;99.90;;;;;;5108453;28;20020;-67
2022/12/20 09:56:22;;;;;;;18.98;10.63;;;7.10;99.90;;;;;;5081657;28;20598;-66
2022/12/20 09:59:10;;;;;;;19.92;10.90;;;7.20;99.90;;;;;;5068009;28;20028;-67
2022/12/20 10:01:35;;;;;;;18.88;8.93;;;7.40;99.90;;;;;;5088656;28;20088;-66
2022/12/20 10:04:14;;;;;;;22.67;11.15;;;7.50;99.90;;;;;;5088365;28;20036;-66
2022/12/20 10:06:40;;;;;;;16.63;9.45;;;7.60;99.90;;;;;;5086675;28;20058;-67
2022/12/20 10:09:24;;;;;;;16.52;10.00;;;7.80;99.90;;;;;;5088294;28;20059;-69
2022/12/20 10:12:02;;;;;;;18.08;10.80;;;7.90;99.90;;;;;;5092691;28;20023;-67
2022/12/20 10:14:55;;;;;;;15.77;9.52;;;8.00;99.90;;;;;;5088055;28;20027;-68
2022/12/20 10:17:45;;;;;;;13.63;7.78;;;8.10;99.90;;;;;;5083400;28;20028;-69
2022/12/20 10:20:26;;;;;;;21.20;10.45;;;8.10;99.90;;;;;;5067746;28;20111;-68
2022/12/20 10:23:14;;;;;;;16.52;9.00;;;8.10;99.90;;;;;;5108012;28;20047;-68
2022/12/20 10:25:42;;;;;;;17.33;9.63;;;8.20;99.90;;;;;;5089069;28;20039;-68
2022/12/20 10:28:14;;;;;;;18.85;9.63;;;8.30;99.90;;;;;;5108072;28;20035;-68
2022/12/20 10:30:41;;;;;;;16.08;9.55;;;8.30;99.90;;;;;;5089121;28;20023;-67
2022/12/20 10:33:19;;;;;;;12.68;7.80;;;8.30;99.90;;;;;;5108095;28;20055;-67
2022/12/20 10:35:45;;;;;;;17.25;10.15;;;8.30;99.90;;;;;;5074199;28;20103;-67
2022/12/20 10:38:16;;;;;;;21.65;10.88;;;8.40;99.90;;;;;;5107747;28;20111;-67
2022/12/20 10:40:59;;;;;;;15.27;8.45;;;8.40;99.90;;;;;;5074101;28;20072;-67
2022/12/20 10:43:26;;;;;;;17.88;10.65;;;8.40;99.90;;;;;;5108788;28;20440;-68
2022/12/20 10:46:06;;;;;;;23.08;11.55;;;8.40;99.90;;;;;;5092338;28;20053;-68
2022/12/20 10:48:35;;;;;;;19.02;10.30;;;8.40;99.90;;;;;;5106889;28;20081;-67
2022/12/20 10:51:14;;;;;;;20.45;10.68;;;8.40;99.90;;;;;;5108963;28;20016;-68
2022/12/20 10:54:01;;;;;;;15.60;9.43;;;8.40;99.90;;;;;;5080785;28;20026;-68
2022/12/20 10:56:33;;;;;;;16.88;9.52;;;8.40;99.90;;;;;;5068528;28;20028;-67
2022/12/20 10:59:20;;;;;;;17.40;9.43;;;8.40;99.90;;;;;;5106683;28;20107;-67
2022/12/20 11:01:47;;;;;;;16.67;9.23;;;8.40;99.90;;;;;;5081130;28;20074;-68
2022/12/20 11:04:28;;;;;;;17.90;10.10;;;8.30;99.90;;;;;;5087839;28;20040;-68
2022/12/20 11:06:53;;;;;;;17.80;9.77;;;8.30;99.90;;;;;;5067392;28;20033;-68
2022/12/20 11:09:30;;;;;;;21.02;11.43;;;8.30;99.90;;;;;;5090456;28;20078;-68
2022/12/20 11:12:03;;;;;;;21.85;10.77;;;8.30;99.90;;;;;;5071960;28;20089;-68
2022/12/20 11:14:30;;;;;;;18.20;10.02;;;8.40;99.90;;;;;;5110526;28;20035;-63
2022/12/20 11:16:59;;;;;;;19.95;11.07;;;8.40;99.90;;;;;;5092271;28;20113;-65
2022/12/20 11:19:47;;;;;;;21.00;12.18;;;8.50;99.90;;;;;;5090485;28;20060;-63
2022/12/20 11:22:32;;;;;;;20.42;12.43;;;8.40;99.90;;;;;;5072076;28;20033;-63
2022/12/20 11:25:19;;;;;;;17.48;8.40;;;8.50;99.90;;;;;;5104612;28;20047;-63
2022/12/20 11:28:12;;;;;;;23.60;12.48;;;8.50;99.90;;;;;;5080940;28;20076;-63
2022/12/20 11:31:14;;;;;;;21.75;11.60;;;8.40;99.90;;;;;;5112113;28;20027;-63
2022/12/20 11:34:02;;;;;;;20.67;11.32;;;8.40;99.90;;;;;;5090306;28;20016;-63
2022/12/20 11:36:50;;;;;;;23.23;13.30;;;8.40;99.90;;;;;;5070306;28;20080;-64
2022/12/20 11:39:37;;;;;;;21.45;12.32;;;8.30;99.90;;;;;;5098028;28;20023;-63
2022/12/20 11:42:35;;;;;;;23.75;12.65;;;8.30;99.90;;;;;;5071727;28;20036;-63
2022/12/20 11:45:18;;;;;;;24.25;13.23;;;8.20;99.90;;;;;;5071678;28;20111;-63
2022/12/20 11:47:50;;;;;;;23.33;11.45;;;8.30;99.90;;;;;;5071910;28;20021;-63
2022/12/20 11:50:40;;;;;;;23.60;12.63;;;8.20;99.90;;;;;;5112257;28;20026;-64
2022/12/20 11:53:37;;;;;;;19.88;12.05;;;8.20;99.90;;;;;;5093346;28;20031;-63
2022/12/20 11:56:23;;;;;;;23.40;12.85;;;8.30;99.90;;;;;;5089874;28;20032;-63
2022/12/20 11:58:55;;;;;;;22.67;12.30;;;8.20;99.90;;;;;;5090119;28;20125;-63
2022/12/20 12:01:28;;;;;;;26.55;13.50;;;8.20;99.90;;;;;;5069977;28;20028;-63
2022/12/20 12:04:18;;;;;;;20.02;12.40;;;8.20;99.90;;;;;;5091491;28;20511;-63
2022/12/20 12:07:07;;;;;;;24.30;12.15;;;8.20;99.90;;;;;;5067877;28;20021;-63
2022/12/20 12:09:58;;;;;;;22.40;11.73;;;8.30;99.90;;;;;;5084182;28;20051;-63
2022/12/20 12:12:33;;;;;;;26.58;12.98;;;8.30;99.90;;;;;;5067803;28;20575;-63
2022/12/20 12:15:35;;;;;;;25.27;14.27;;;8.40;99.90;;;;;;5089277;28;20439;-63
2022/12/20 12:18:04;;;;;;;24.50;12.38;;;8.30;99.90;;;;;;5075254;28;20022;-63
2022/12/20 12:21:03;;;;;;;25.63;12.00;;;8.30;99.90;;;;;;5111676;28;20031;-63
2022/12/20 12:23:49;;;;;;;20.50;11.68;;;8.20;99.90;;;;;;5082588;28;20419;-63
2022/12/20 12:26:24;;;;;;;25.20;13.00;;;8.20;99.90;;;;;;5069553;28;20136;-64
2022/12/20 12:28:54;;;;;;;15.82;7.78;;;8.20;99.90;;;;;;5088594;28;20517;-64
2022/12/20 12:31:35;;;;;;;21.48;11.70;;;8.10;99.90;;;;;;5090897;28;20016;-63
2022/12/20 12:34:00;;;;;;;23.88;12.80;;;8.10;99.90;;;;;;5092579;28;20039;-63
2022/12/20 12:36:51;;;;;;;22.52;12.55;;;8.10;99.90;;;;;;5089962;28;20039;-61
2022/12/20 12:39:28;;;;;;;21.92;12.63;;;8.00;99.90;;;;;;5087514;28;20031;-72
2022/12/20 12:42:21;;;;;;;23.98;13.43;;;7.90;99.90;;;;;;5069609;28;20036;-73
2022/12/20 12:45:00;;;;;;;25.25;13.93;;;7.80;99.90;;;;;;5070814;28;20047;-73
2022/12/20 12:47:44;;;;;;;21.90;12.80;;;7.80;99.90;;;;;;5109286;28;20028;-73
2022/12/20 12:50:29;;;;;;;25.70;13.75;;;7.70;99.90;;;;;;5100522;28;20055;-72
2022/12/20 12:52:57;;;;;;;22.95;12.35;;;7.60;99.90;;;;;;5084881;28;20679;-73
2022/12/20 12:55:35;;;;;;;25.85;13.77;;;7.50;99.90;;;;;;5090528;28;20027;-73
2022/12/20 12:58:22;;;;;;;24.75;12.70;;;7.50;99.90;;;;;;5108592;28;20031;-73
2022/12/20 13:01:07;;;;;;;23.85;13.02;;;7.50;99.90;;;;;;5091113;28;20035;-73
2022/12/20 13:03:45;;;;;;;25.52;13.15;;;7.50;99.90;;;;;;5081951;28;20024;-72
2022/12/20 13:06:23;;;;;;;21.98;13.57;;;7.40;99.90;;;;;;5104499;28;20032;-73